Hlavní strana
METAR-TAF:

METAR-TAF

Letiště :

Vamdrup

Kolding, Dánsko

zeměpisná šířka: 55-26N, zeměpisná délka: 009-20E, výška: 44 m

Aktuální stav počasí

Zpráva byla vytvořena před 27 minutami, v 01:50 UTC
Západoseverozápadní vítr 3 kt
Teplota 7°C
Vlhkost vzduchu 100%
Tlak 1032 hPa

METAR: EKVD 220150Z AUTO 30003KT //// ///////// 07/07 Q1032

Čas: 03:17 (02:17 UTC)

Předpověď počasí

Zpráva byla vytvořena před 14 hodinami a 24 minutami, v 11:53 UTC
Předpověď platná od 21 v 12 UTC do 21 v 17 UTC
Západojihozápadní vítr 14 kt
Viditelnost: 6000 m
Oblačno až skoro zataženo ve výšce 1200 ft
Dočasný
od 21 v 12 UTC do 21 v 17 UTC
Viditelnost: 1500 m
Oblačno až skoro zataženo ve výšce 400 ft
kouřmo

TAF: EKVD 211153Z 2112/2117 24014KT 6000 BKN012 TEMPO 2112/2117 1500 BR BKN004

Stav a předpovědi počasí z více než 4 000 letišť (zprávy METAR a TAF).

Červené a žluté tečky na mapě představují dostupné meteorologické stanice.

Když kurzor umístíte na tečku, zobrazí se název stanice.

Pak kliknutím zobrazíte stav a předpověď počasí.

Chcete-li změnit mapu, kliknutím na zelené tlačítko se znaménkem +mapu přiblížíte, kliknutím na zelené tlačítko se znaménkem – mapu oddálíte a kliknutím na zelené šipky přejdete na sousední mapy.


METAR-TAF: